Orlando, Florida
Traffic Map
Current Weather Conditions
Orlando, Florida
Few Clouds
Few Clouds
26°
Feels Like: 28°
Wind Chill: 26° Ceiling: Unl
Heat Index: 28° Visibility: 10mi
Dew Point: 24° Wind: 6mph
Humidity: 88% Direction: 240° (WSW)
Pressure: 30.04in Gusts: 0mph
Raw Report DataKORL 281005Z AUTO 24005KT 10SM FEW003 26/24 A3004 RMK AO2 T02610239
Traffic Incident Summary
Active as of:
Severity:
Category:
InformationThere was an issue retrieving the traffic information for this location. Please try a different location or try again shortly.
Advertisements
Track Severe Weather on mobile